sensor_id;sensor_type;location;lat;lon;timestamp;P1;durP1;ratioP1;P2;durP2;ratioP2
59273;SDS011;45044;41.572;24.730;2023-06-04T00:02:23;14.85;;;11.73;;
59273;SDS011;45044;41.572;24.730;2023-06-04T00:04:50;17.33;;;12.13;;
59273;SDS011;45044;41.572;24.730;2023-06-04T00:07:17;13.70;;;12.10;;
59273;SDS011;45044;41.572;24.730;2023-06-04T00:09:45;18.52;;;12.48;;
59273;SDS011;45044;41.572;24.730;2023-06-04T00:12:13;20.35;;;14.52;;
59273;SDS011;45044;41.572;24.730;2023-06-04T00:14:40;18.85;;;13.57;;
59273;SDS011;45044;41.572;24.730;2023-06-04T00:17:08;16.63;;;13.23;;
59273;SDS011;45044;41.572;24.730;2023-06-04T00:19:35;16.55;;;12.68;;
59273;SDS011;45044;41.572;24.730;2023-06-04T00:22:04;17.13;;;12.45;;
59273;SDS011;45044;41.572;24.730;2023-06-04T00:24:32;16.27;;;12.18;;
59273;SDS011;45044;41.572;24.730;2023-06-04T00:26:59;16.90;;;12.82;;
59273;SDS011;45044;41.572;24.730;2023-06-04T00:29:26;17.33;;;12.35;;
59273;SDS011;45044;41.572;24.730;2023-06-04T00:31:52;18.75;;;12.95;;
59273;SDS011;45044;41.572;24.730;2023-06-04T00:34:19;17.77;;;12.90;;
59273;SDS011;45044;41.572;24.730;2023-06-04T00:36:54;17.58;;;12.98;;
59273;SDS011;45044;41.572;24.730;2023-06-04T00:39:21;18.48;;;13.50;;
59273;SDS011;45044;41.572;24.730;2023-06-04T00:41:47;20.08;;;14.10;;
59273;SDS011;45044;41.572;24.730;2023-06-04T00:44:15;18.08;;;12.95;;
59273;SDS011;45044;41.572;24.730;2023-06-04T00:46:42;17.13;;;12.18;;
59273;SDS011;45044;41.572;24.730;2023-06-04T00:49:11;15.70;;;11.18;;
59273;SDS011;45044;41.572;24.730;2023-06-04T00:51:39;18.83;;;12.15;;
59273;SDS011;45044;41.572;24.730;2023-06-04T00:54:06;16.08;;;12.20;;
59273;SDS011;45044;41.572;24.730;2023-06-04T00:56:36;15.35;;;11.57;;
59273;SDS011;45044;41.572;24.730;2023-06-04T00:59:06;19.77;;;13.32;;
59273;SDS011;45044;41.572;24.730;2023-06-04T01:04:27;16.48;;;12.40;;
59273;SDS011;45044;41.572;24.730;2023-06-04T01:06:58;18.13;;;13.07;;
59273;SDS011;45044;41.572;24.730;2023-06-04T01:09:29;17.15;;;12.98;;
59273;SDS011;45044;41.572;24.730;2023-06-04T01:11:59;18.10;;;13.95;;
59273;SDS011;45044;41.572;24.730;2023-06-04T01:14:28;17.88;;;12.88;;
59273;SDS011;45044;41.572;24.730;2023-06-04T01:16:56;17.77;;;13.30;;
59273;SDS011;45044;41.572;24.730;2023-06-04T01:25:02;16.88;;;12.82;;
59273;SDS011;45044;41.572;24.730;2023-06-04T01:27:31;19.38;;;13.48;;
59273;SDS011;45044;41.572;24.730;2023-06-04T01:29:58;17.98;;;13.27;;
59273;SDS011;45044;41.572;24.730;2023-06-04T01:32:27;24.77;;;16.05;;
59273;SDS011;45044;41.572;24.730;2023-06-04T01:34:54;22.17;;;14.13;;
59273;SDS011;45044;41.572;24.730;2023-06-04T01:37:21;24.38;;;15.13;;
59273;SDS011;45044;41.572;24.730;2023-06-04T01:39:48;27.13;;;15.70;;
59273;SDS011;45044;41.572;24.730;2023-06-04T01:42:14;22.52;;;15.25;;
59273;SDS011;45044;41.572;24.730;2023-06-04T01:44:41;22.75;;;14.73;;
59273;SDS011;45044;41.572;24.730;2023-06-04T01:47:08;20.10;;;13.40;;
59273;SDS011;45044;41.572;24.730;2023-06-04T01:49:44;25.65;;;15.35;;
59273;SDS011;45044;41.572;24.730;2023-06-04T01:52:10;23.08;;;14.93;;
59273;SDS011;45044;41.572;24.730;2023-06-04T01:54:38;20.90;;;14.52;;
59273;SDS011;45044;41.572;24.730;2023-06-04T01:57:05;20.08;;;14.57;;
59273;SDS011;45044;41.572;24.730;2023-06-04T01:59:32;19.30;;;14.38;;
59273;SDS011;45044;41.572;24.730;2023-06-04T02:01:59;20.55;;;15.45;;
59273;SDS011;45044;41.572;24.730;2023-06-04T02:04:28;26.00;;;16.58;;
59273;SDS011;45044;41.572;24.730;2023-06-04T02:06:55;24.90;;;15.27;;
59273;SDS011;45044;41.572;24.730;2023-06-04T02:09:23;23.30;;;15.35;;
59273;SDS011;45044;41.572;24.730;2023-06-04T02:11:49;47.00;;;16.98;;
59273;SDS011;45044;41.572;24.730;2023-06-04T02:14:16;28.75;;;16.17;;
59273;SDS011;45044;41.572;24.730;2023-06-04T02:16:43;22.25;;;15.48;;
59273;SDS011;45044;41.572;24.730;2023-06-04T02:19:10;19.40;;;14.80;;
59273;SDS011;45044;41.572;24.730;2023-06-04T02:21:39;17.92;;;13.82;;
59273;SDS011;45044;41.572;24.730;2023-06-04T02:24:06;24.33;;;15.75;;
59273;SDS011;45044;41.572;24.730;2023-06-04T02:26:33;26.63;;;14.63;;
59273;SDS011;45044;41.572;24.730;2023-06-04T02:28:59;29.60;;;14.70;;
59273;SDS011;45044;41.572;24.730;2023-06-04T02:31:26;36.50;;;16.10;;
59273;SDS011;45044;41.572;24.730;2023-06-04T02:33:55;33.78;;;16.08;;
59273;SDS011;45044;41.572;24.730;2023-06-04T02:36:21;23.40;;;14.45;;
59273;SDS011;45044;41.572;24.730;2023-06-04T02:38:49;29.73;;;15.32;;
59273;SDS011;45044;41.572;24.730;2023-06-04T02:41:15;31.77;;;15.57;;
59273;SDS011;45044;41.572;24.730;2023-06-04T02:43:42;22.38;;;14.25;;
59273;SDS011;45044;41.572;24.730;2023-06-04T02:46:09;21.35;;;14.40;;
59273;SDS011;45044;41.572;24.730;2023-06-04T02:48:36;20.25;;;13.68;;
59273;SDS011;45044;41.572;24.730;2023-06-04T02:51:04;20.38;;;13.88;;
59273;SDS011;45044;41.572;24.730;2023-06-04T02:53:32;18.45;;;14.10;;
59273;SDS011;45044;41.572;24.730;2023-06-04T02:55:58;20.38;;;14.30;;
59273;SDS011;45044;41.572;24.730;2023-06-04T02:58:29;19.23;;;15.25;;
59273;SDS011;45044;41.572;24.730;2023-06-04T03:00:58;19.98;;;14.90;;
59273;SDS011;45044;41.572;24.730;2023-06-04T03:03:26;24.40;;;17.58;;
59273;SDS011;45044;41.572;24.730;2023-06-04T03:05:54;20.63;;;14.73;;
59273;SDS011;45044;41.572;24.730;2023-06-04T03:08:21;32.13;;;15.90;;
59273;SDS011;45044;41.572;24.730;2023-06-04T03:10:48;24.45;;;14.98;;
59273;SDS011;45044;41.572;24.730;2023-06-04T03:13:14;23.13;;;15.40;;
59273;SDS011;45044;41.572;24.730;2023-06-04T03:15:41;23.92;;;16.17;;
59273;SDS011;45044;41.572;24.730;2023-06-04T03:18:08;28.75;;;16.92;;
59273;SDS011;45044;41.572;24.730;2023-06-04T03:20:35;20.10;;;15.13;;
59273;SDS011;45044;41.572;24.730;2023-06-04T03:23:04;24.95;;;15.77;;
59273;SDS011;45044;41.572;24.730;2023-06-04T03:25:31;22.23;;;15.65;;
59273;SDS011;45044;41.572;24.730;2023-06-04T03:27:58;20.88;;;15.88;;
59273;SDS011;45044;41.572;24.730;2023-06-04T03:30:25;28.65;;;16.00;;
59273;SDS011;45044;41.572;24.730;2023-06-04T03:32:52;52.78;;;16.58;;
59273;SDS011;45044;41.572;24.730;2023-06-04T03:35:18;36.30;;;18.05;;
59273;SDS011;45044;41.572;24.730;2023-06-04T03:37:45;22.92;;;16.85;;
59273;SDS011;45044;41.572;24.730;2023-06-04T03:40:12;29.38;;;15.45;;
59273;SDS011;45044;41.572;24.730;2023-06-04T03:42:40;21.25;;;15.50;;
59273;SDS011;45044;41.572;24.730;2023-06-04T03:45:07;23.23;;;15.63;;
59273;SDS011;45044;41.572;24.730;2023-06-04T03:47:34;22.38;;;15.38;;
59273;SDS011;45044;41.572;24.730;2023-06-04T03:50:01;20.40;;;14.43;;
59273;SDS011;45044;41.572;24.730;2023-06-04T03:52:29;21.58;;;15.90;;
59273;SDS011;45044;41.572;24.730;2023-06-04T03:54:56;25.00;;;17.90;;
59273;SDS011;45044;41.572;24.730;2023-06-04T03:57:22;29.20;;;18.60;;
59273;SDS011;45044;41.572;24.730;2023-06-04T03:59:49;25.80;;;18.38;;
59273;SDS011;45044;41.572;24.730;2023-06-04T04:02:16;25.38;;;19.20;;
59273;SDS011;45044;41.572;24.730;2023-06-04T04:04:46;23.55;;;17.00;;
59273;SDS011;45044;41.572;24.730;2023-06-04T04:07:13;27.40;;;19.73;;
59273;SDS011;45044;41.572;24.730;2023-06-04T04:09:40;23.20;;;18.25;;
59273;SDS011;45044;41.572;24.730;2023-06-04T04:12:07;26.90;;;18.88;;
59273;SDS011;45044;41.572;24.730;2023-06-04T04:14:33;23.55;;;18.55;;
59273;SDS011;45044;41.572;24.730;2023-06-04T04:17:00;26.35;;;19.42;;
59273;SDS011;45044;41.572;24.730;2023-06-04T04:19:27;25.30;;;19.30;;
59273;SDS011;45044;41.572;24.730;2023-06-04T04:21:55;26.02;;;18.42;;
59273;SDS011;45044;41.572;24.730;2023-06-04T04:24:22;23.17;;;19.00;;
59273;SDS011;45044;41.572;24.730;2023-06-04T04:26:53;24.35;;;19.08;;
59273;SDS011;45044;41.572;24.730;2023-06-04T04:29:21;22.70;;;17.70;;
59273;SDS011;45044;41.572;24.730;2023-06-04T04:31:54;22.10;;;17.70;;
59273;SDS011;45044;41.572;24.730;2023-06-04T04:34:25;19.92;;;16.27;;
59273;SDS011;45044;41.572;24.730;2023-06-04T04:36:53;19.48;;;14.75;;
59273;SDS011;45044;41.572;24.730;2023-06-04T04:39:21;21.83;;;16.58;;
59273;SDS011;45044;41.572;24.730;2023-06-04T04:41:49;21.42;;;16.95;;
59273;SDS011;45044;41.572;24.730;2023-06-04T04:44:16;22.98;;;17.95;;
59273;SDS011;45044;41.572;24.730;2023-06-04T04:46:44;21.80;;;17.73;;
59273;SDS011;45044;41.572;24.730;2023-06-04T04:49:11;22.17;;;17.60;;
59273;SDS011;45044;41.572;24.730;2023-06-04T04:51:37;19.23;;;16.40;;
59273;SDS011;45044;41.572;24.730;2023-06-04T04:54:04;21.88;;;16.90;;
59273;SDS011;45044;41.572;24.730;2023-06-04T04:56:35;20.58;;;16.27;;
59273;SDS011;45044;41.572;24.730;2023-06-04T04:59:01;21.85;;;16.13;;
59273;SDS011;45044;41.572;24.730;2023-06-04T05:01:28;20.45;;;15.57;;
59273;SDS011;45044;41.572;24.730;2023-06-04T05:03:55;22.35;;;16.02;;
59273;SDS011;45044;41.572;24.730;2023-06-04T05:06:22;17.63;;;15.43;;
59273;SDS011;45044;41.572;24.730;2023-06-04T05:08:49;15.43;;;12.88;;
59273;SDS011;45044;41.572;24.730;2023-06-04T05:11:15;13.82;;;10.60;;
59273;SDS011;45044;41.572;24.730;2023-06-04T05:13:42;12.77;;;10.35;;
59273;SDS011;45044;41.572;24.730;2023-06-04T05:16:09;13.52;;;10.55;;
59273;SDS011;45044;41.572;24.730;2023-06-04T05:18:38;14.88;;;11.65;;
59273;SDS011;45044;41.572;24.730;2023-06-04T05:21:07;15.88;;;13.48;;
59273;SDS011;45044;41.572;24.730;2023-06-04T05:23:34;20.25;;;15.02;;
59273;SDS011;45044;41.572;24.730;2023-06-04T05:26:03;18.77;;;15.27;;
59273;SDS011;45044;41.572;24.730;2023-06-04T05:28:33;18.45;;;14.48;;
59273;SDS011;45044;41.572;24.730;2023-06-04T05:31:00;17.23;;;14.00;;
59273;SDS011;45044;41.572;24.730;2023-06-04T05:33:27;15.38;;;12.73;;
59273;SDS011;45044;41.572;24.730;2023-06-04T05:35:54;14.32;;;12.75;;
59273;SDS011;45044;41.572;24.730;2023-06-04T05:38:24;14.73;;;12.25;;
59273;SDS011;45044;41.572;24.730;2023-06-04T05:40:54;16.98;;;11.70;;
59273;SDS011;45044;41.572;24.730;2023-06-04T05:43:24;18.05;;;12.32;;
59273;SDS011;45044;41.572;24.730;2023-06-04T05:45:51;16.50;;;12.38;;
59273;SDS011;45044;41.572;24.730;2023-06-04T05:48:20;16.80;;;12.93;;
59273;SDS011;45044;41.572;24.730;2023-06-04T05:50:47;17.90;;;14.00;;
59273;SDS011;45044;41.572;24.730;2023-06-04T05:53:14;17.52;;;12.98;;
59273;SDS011;45044;41.572;24.730;2023-06-04T05:55:41;30.60;;;18.88;;
59273;SDS011;45044;41.572;24.730;2023-06-04T05:58:08;15.88;;;13.23;;
59273;SDS011;45044;41.572;24.730;2023-06-04T06:00:35;14.82;;;12.13;;
59273;SDS011;45044;41.572;24.730;2023-06-04T06:03:01;17.08;;;12.43;;
59273;SDS011;45044;41.572;24.730;2023-06-04T06:05:29;16.60;;;13.30;;
59273;SDS011;45044;41.572;24.730;2023-06-04T06:07:55;15.70;;;13.68;;
59273;SDS011;45044;41.572;24.730;2023-06-04T06:10:22;16.98;;;14.05;;
59273;SDS011;45044;41.572;24.730;2023-06-04T06:12:49;17.77;;;14.88;;
59273;SDS011;45044;41.572;24.730;2023-06-04T06:15:16;17.15;;;14.57;;
59273;SDS011;45044;41.572;24.730;2023-06-04T06:17:43;17.23;;;14.27;;
59273;SDS011;45044;41.572;24.730;2023-06-04T06:20:11;27.98;;;18.63;;
59273;SDS011;45044;41.572;24.730;2023-06-04T06:22:38;19.20;;;14.02;;
59273;SDS011;45044;41.572;24.730;2023-06-04T06:25:05;29.83;;;20.02;;
59273;SDS011;45044;41.572;24.730;2023-06-04T06:27:33;17.95;;;13.30;;
59273;SDS011;45044;41.572;24.730;2023-06-04T06:29:59;23.70;;;16.23;;
59273;SDS011;45044;41.572;24.730;2023-06-04T06:32:26;22.13;;;16.58;;
59273;SDS011;45044;41.572;24.730;2023-06-04T06:34:53;19.73;;;15.02;;
59273;SDS011;45044;41.572;24.730;2023-06-04T06:37:20;18.85;;;14.23;;
59273;SDS011;45044;41.572;24.730;2023-06-04T06:39:47;16.55;;;13.43;;
59273;SDS011;45044;41.572;24.730;2023-06-04T06:42:13;17.65;;;14.73;;
59273;SDS011;45044;41.572;24.730;2023-06-04T06:44:43;18.10;;;14.25;;
59273;SDS011;45044;41.572;24.730;2023-06-04T06:47:10;15.75;;;12.98;;
59273;SDS011;45044;41.572;24.730;2023-06-04T06:49:41;24.80;;;17.55;;
59273;SDS011;45044;41.572;24.730;2023-06-04T06:52:07;21.85;;;15.73;;
59273;SDS011;45044;41.572;24.730;2023-06-04T06:54:34;14.27;;;10.88;;
59273;SDS011;45044;41.572;24.730;2023-06-04T06:57:01;17.65;;;12.75;;
59273;SDS011;45044;41.572;24.730;2023-06-04T06:59:35;12.38;;;9.63;;
59273;SDS011;45044;41.572;24.730;2023-06-04T07:02:02;15.93;;;12.20;;
59273;SDS011;45044;41.572;24.730;2023-06-04T07:04:30;12.57;;;9.85;;
59273;SDS011;45044;41.572;24.730;2023-06-04T07:06:57;13.48;;;9.80;;
59273;SDS011;45044;41.572;24.730;2023-06-04T07:09:24;11.82;;;10.30;;
59273;SDS011;45044;41.572;24.730;2023-06-04T07:11:50;14.55;;;11.23;;
59273;SDS011;45044;41.572;24.730;2023-06-04T07:14:17;12.18;;;9.50;;
59273;SDS011;45044;41.572;24.730;2023-06-04T07:16:44;11.15;;;9.35;;
59273;SDS011;45044;41.572;24.730;2023-06-04T07:19:11;15.15;;;12.70;;
59273;SDS011;45044;41.572;24.730;2023-06-04T07:21:38;11.43;;;9.55;;
59273;SDS011;45044;41.572;24.730;2023-06-04T07:24:04;12.77;;;11.48;;
59273;SDS011;45044;41.572;24.730;2023-06-04T07:26:31;13.77;;;11.40;;
59273;SDS011;45044;41.572;24.730;2023-06-04T07:29:01;13.50;;;10.23;;
59273;SDS011;45044;41.572;24.730;2023-06-04T07:31:27;11.77;;;9.95;;
59273;SDS011;45044;41.572;24.730;2023-06-04T07:33:54;11.45;;;9.60;;
59273;SDS011;45044;41.572;24.730;2023-06-04T07:36:21;13.32;;;10.20;;
59273;SDS011;45044;41.572;24.730;2023-06-04T07:38:49;15.02;;;11.85;;
59273;SDS011;45044;41.572;24.730;2023-06-04T07:41:17;19.85;;;13.20;;
59273;SDS011;45044;41.572;24.730;2023-06-04T07:43:43;13.85;;;10.45;;
59273;SDS011;45044;41.572;24.730;2023-06-04T07:46:10;14.77;;;11.60;;
59273;SDS011;45044;41.572;24.730;2023-06-04T07:48:37;13.77;;;10.32;;
59273;SDS011;45044;41.572;24.730;2023-06-04T07:51:04;13.95;;;10.85;;
59273;SDS011;45044;41.572;24.730;2023-06-04T07:53:37;13.60;;;10.85;;
59273;SDS011;45044;41.572;24.730;2023-06-04T07:56:05;12.07;;;8.85;;
59273;SDS011;45044;41.572;24.730;2023-06-04T07:58:32;8.85;;;6.47;;
59273;SDS011;45044;41.572;24.730;2023-06-04T08:00:59;6.70;;;4.95;;
59273;SDS011;45044;41.572;24.730;2023-06-04T08:03:25;7.70;;;4.82;;
59273;SDS011;45044;41.572;24.730;2023-06-04T08:05:53;8.40;;;6.35;;
59273;SDS011;45044;41.572;24.730;2023-06-04T08:08:19;11.98;;;8.32;;
59273;SDS011;45044;41.572;24.730;2023-06-04T08:10:46;7.80;;;5.10;;
59273;SDS011;45044;41.572;24.730;2023-06-04T08:13:13;8.15;;;6.05;;
59273;SDS011;45044;41.572;24.730;2023-06-04T08:15:40;10.90;;;7.63;;
59273;SDS011;45044;41.572;24.730;2023-06-04T08:18:06;11.77;;;8.25;;
59273;SDS011;45044;41.572;24.730;2023-06-04T08:20:33;13.02;;;8.35;;
59273;SDS011;45044;41.572;24.730;2023-06-04T08:23:01;13.68;;;9.52;;
59273;SDS011;45044;41.572;24.730;2023-06-04T08:25:28;13.40;;;9.65;;
59273;SDS011;45044;41.572;24.730;2023-06-04T08:27:56;9.35;;;6.68;;
59273;SDS011;45044;41.572;24.730;2023-06-04T08:30:24;11.15;;;8.77;;
59273;SDS011;45044;41.572;24.730;2023-06-04T08:32:53;10.38;;;7.20;;
59273;SDS011;45044;41.572;24.730;2023-06-04T08:35:20;12.20;;;5.88;;
59273;SDS011;45044;41.572;24.730;2023-06-04T08:37:53;15.93;;;8.23;;
59273;SDS011;45044;41.572;24.730;2023-06-04T08:40:22;9.13;;;6.50;;
59273;SDS011;45044;41.572;24.730;2023-06-04T08:42:48;8.00;;;5.93;;
59273;SDS011;45044;41.572;24.730;2023-06-04T08:45:17;8.73;;;5.85;;
59273;SDS011;45044;41.572;24.730;2023-06-04T08:47:50;7.75;;;5.63;;
59273;SDS011;45044;41.572;24.730;2023-06-04T08:50:18;7.93;;;5.32;;
59273;SDS011;45044;41.572;24.730;2023-06-04T08:52:47;8.40;;;5.53;;
59273;SDS011;45044;41.572;24.730;2023-06-04T08:55:18;7.20;;;5.40;;
59273;SDS011;45044;41.572;24.730;2023-06-04T08:57:45;7.15;;;5.20;;
59273;SDS011;45044;41.572;24.730;2023-06-04T09:00:13;7.22;;;5.18;;
59273;SDS011;45044;41.572;24.730;2023-06-04T09:02:41;10.27;;;6.05;;
59273;SDS011;45044;41.572;24.730;2023-06-04T09:05:09;10.73;;;5.72;;
59273;SDS011;45044;41.572;24.730;2023-06-04T09:07:45;7.38;;;4.75;;
59273;SDS011;45044;41.572;24.730;2023-06-04T09:10:15;7.63;;;5.43;;
59273;SDS011;45044;41.572;24.730;2023-06-04T09:12:46;7.80;;;5.38;;
59273;SDS011;45044;41.572;24.730;2023-06-04T09:15:14;8.05;;;5.60;;
59273;SDS011;45044;41.572;24.730;2023-06-04T09:17:41;9.32;;;6.10;;
59273;SDS011;45044;41.572;24.730;2023-06-04T09:20:07;7.72;;;5.00;;
59273;SDS011;45044;41.572;24.730;2023-06-04T09:22:44;10.50;;;6.18;;
59273;SDS011;45044;41.572;24.730;2023-06-04T09:25:18;9.07;;;5.72;;
59273;SDS011;45044;41.572;24.730;2023-06-04T09:27:52;7.15;;;5.07;;
59273;SDS011;45044;41.572;24.730;2023-06-04T09:30:22;7.72;;;5.45;;
59273;SDS011;45044;41.572;24.730;2023-06-04T09:32:49;8.30;;;6.63;;
59273;SDS011;45044;41.572;24.730;2023-06-04T09:35:16;8.70;;;6.60;;
59273;SDS011;45044;41.572;24.730;2023-06-04T09:37:54;9.95;;;7.07;;
59273;SDS011;45044;41.572;24.730;2023-06-04T09:40:22;9.95;;;5.45;;
59273;SDS011;45044;41.572;24.730;2023-06-04T09:42:51;9.13;;;5.93;;
59273;SDS011;45044;41.572;24.730;2023-06-04T09:45:28;9.68;;;6.10;;
59273;SDS011;45044;41.572;24.730;2023-06-04T09:47:56;8.73;;;6.18;;
59273;SDS011;45044;41.572;24.730;2023-06-04T09:50:41;8.20;;;5.70;;
59273;SDS011;45044;41.572;24.730;2023-06-04T09:53:18;8.98;;;5.93;;
59273;SDS011;45044;41.572;24.730;2023-06-04T09:55:56;7.28;;;5.53;;
59273;SDS011;45044;41.572;24.730;2023-06-04T09:58:28;7.80;;;5.00;;
59273;SDS011;45044;41.572;24.730;2023-06-04T10:00:59;8.27;;;5.28;;
59273;SDS011;45044;41.572;24.730;2023-06-04T10:03:32;7.70;;;5.70;;
59273;SDS011;45044;41.572;24.730;2023-06-04T10:06:01;9.73;;;6.15;;
59273;SDS011;45044;41.572;24.730;2023-06-04T10:08:30;11.65;;;6.10;;
59273;SDS011;45044;41.572;24.730;2023-06-04T10:10:59;9.43;;;5.43;;
59273;SDS011;45044;41.572;24.730;2023-06-04T10:13:31;7.88;;;4.68;;
59273;SDS011;45044;41.572;24.730;2023-06-04T10:16:05;7.68;;;5.32;;
59273;SDS011;45044;41.572;24.730;2023-06-04T10:18:43;9.10;;;5.10;;
59273;SDS011;45044;41.572;24.730;2023-06-04T10:21:13;7.10;;;4.30;;
59273;SDS011;45044;41.572;24.730;2023-06-04T10:23:43;6.72;;;4.00;;
59273;SDS011;45044;41.572;24.730;2023-06-04T10:26:14;7.07;;;4.53;;
59273;SDS011;45044;41.572;24.730;2023-06-04T10:28:42;6.10;;;3.85;;
59273;SDS011;45044;41.572;24.730;2023-06-04T10:31:09;6.30;;;3.92;;
59273;SDS011;45044;41.572;24.730;2023-06-04T10:33:37;7.07;;;4.57;;
59273;SDS011;45044;41.572;24.730;2023-06-04T10:36:20;7.80;;;3.63;;
59273;SDS011;45044;41.572;24.730;2023-06-04T10:38:48;8.80;;;4.50;;
59273;SDS011;45044;41.572;24.730;2023-06-04T10:41:20;5.55;;;3.83;;
59273;SDS011;45044;41.572;24.730;2023-06-04T10:43:48;7.30;;;4.50;;
59273;SDS011;45044;41.572;24.730;2023-06-04T10:46:17;7.78;;;4.40;;
59273;SDS011;45044;41.572;24.730;2023-06-04T10:51:13;6.50;;;4.50;;
59273;SDS011;45044;41.572;24.730;2023-06-04T10:53:41;8.35;;;4.50;;
59273;SDS011;45044;41.572;24.730;2023-06-04T10:56:08;7.68;;;4.68;;
59273;SDS011;45044;41.572;24.730;2023-06-04T10:58:37;7.40;;;4.70;;
59273;SDS011;45044;41.572;24.730;2023-06-04T11:01:04;8.25;;;4.35;;
59273;SDS011;45044;41.572;24.730;2023-06-04T11:03:37;5.97;;;4.55;;
59273;SDS011;45044;41.572;24.730;2023-06-04T11:06:14;8.68;;;3.90;;
59273;SDS011;45044;41.572;24.730;2023-06-04T11:08:43;5.32;;;3.70;;
59273;SDS011;45044;41.572;24.730;2023-06-04T11:11:10;8.38;;;4.40;;
59273;SDS011;45044;41.572;24.730;2023-06-04T11:13:39;5.75;;;3.78;;
59273;SDS011;45044;41.572;24.730;2023-06-04T11:16:14;7.55;;;4.00;;
59273;SDS011;45044;41.572;24.730;2023-06-04T11:18:54;7.65;;;4.45;;
59273;SDS011;45044;41.572;24.730;2023-06-04T11:21:22;6.03;;;3.88;;
59273;SDS011;45044;41.572;24.730;2023-06-04T11:23:57;5.82;;;4.13;;
59273;SDS011;45044;41.572;24.730;2023-06-04T11:26:29;5.22;;;3.30;;
59273;SDS011;45044;41.572;24.730;2023-06-04T11:29:09;7.30;;;3.78;;
59273;SDS011;45044;41.572;24.730;2023-06-04T11:31:41;7.13;;;3.63;;
59273;SDS011;45044;41.572;24.730;2023-06-04T11:34:09;6.13;;;3.67;;
59273;SDS011;45044;41.572;24.730;2023-06-04T11:36:38;6.70;;;3.85;;
59273;SDS011;45044;41.572;24.730;2023-06-04T11:39:05;6.65;;;3.33;;
59273;SDS011;45044;41.572;24.730;2023-06-04T11:41:35;5.65;;;3.38;;
59273;SDS011;45044;41.572;24.730;2023-06-04T11:44:03;7.25;;;3.92;;
59273;SDS011;45044;41.572;24.730;2023-06-04T11:46:35;10.38;;;4.40;;
59273;SDS011;45044;41.572;24.730;2023-06-04T11:49:06;5.47;;;3.97;;
59273;SDS011;45044;41.572;24.730;2023-06-04T11:51:33;6.50;;;3.47;;
59273;SDS011;45044;41.572;24.730;2023-06-04T11:54:01;6.88;;;4.50;;
59273;SDS011;45044;41.572;24.730;2023-06-04T11:56:28;8.77;;;4.80;;
59273;SDS011;45044;41.572;24.730;2023-06-04T11:58:55;7.38;;;3.85;;
59273;SDS011;45044;41.572;24.730;2023-06-04T12:01:22;7.88;;;4.88;;
59273;SDS011;45044;41.572;24.730;2023-06-04T12:03:49;6.55;;;4.30;;
59273;SDS011;45044;41.572;24.730;2023-06-04T12:06:17;7.35;;;4.22;;
59273;SDS011;45044;41.572;24.730;2023-06-04T12:08:49;8.45;;;5.22;;
59273;SDS011;45044;41.572;24.730;2023-06-04T12:11:25;6.25;;;3.92;;
59273;SDS011;45044;41.572;24.730;2023-06-04T12:13:56;8.68;;;4.32;;
59273;SDS011;45044;41.572;24.730;2023-06-04T12:16:31;6.25;;;4.38;;
59273;SDS011;45044;41.572;24.730;2023-06-04T12:19:31;7.03;;;4.38;;
59273;SDS011;45044;41.572;24.730;2023-06-04T12:22:02;4.88;;;3.47;;
59273;SDS011;45044;41.572;24.730;2023-06-04T12:24:31;5.97;;;3.60;;
59273;SDS011;45044;41.572;24.730;2023-06-04T12:29:29;8.15;;;4.55;;
59273;SDS011;45044;41.572;24.730;2023-06-04T12:32:06;5.55;;;3.72;;
59273;SDS011;45044;41.572;24.730;2023-06-04T12:34:37;9.48;;;3.60;;
59273;SDS011;45044;41.572;24.730;2023-06-04T12:37:06;8.98;;;4.28;;
59273;SDS011;45044;41.572;24.730;2023-06-04T12:39:34;4.85;;;3.28;;
59273;SDS011;45044;41.572;24.730;2023-06-04T12:42:03;6.35;;;3.63;;
59273;SDS011;45044;41.572;24.730;2023-06-04T12:44:32;7.43;;;3.72;;
59273;SDS011;45044;41.572;24.730;2023-06-04T12:47:01;6.22;;;4.15;;
59273;SDS011;45044;41.572;24.730;2023-06-04T12:49:29;7.63;;;4.55;;
59273;SDS011;45044;41.572;24.730;2023-06-04T12:51:56;7.05;;;4.20;;
59273;SDS011;45044;41.572;24.730;2023-06-04T12:54:22;5.78;;;3.78;;
59273;SDS011;45044;41.572;24.730;2023-06-04T12:56:55;5.95;;;4.10;;
59273;SDS011;45044;41.572;24.730;2023-06-04T12:59:23;7.70;;;4.95;;
59273;SDS011;45044;41.572;24.730;2023-06-04T13:01:52;6.30;;;3.75;;
59273;SDS011;45044;41.572;24.730;2023-06-04T13:04:19;7.03;;;3.80;;
59273;SDS011;45044;41.572;24.730;2023-06-04T13:06:46;7.05;;;3.38;;
59273;SDS011;45044;41.572;24.730;2023-06-04T13:09:13;5.68;;;3.97;;
59273;SDS011;45044;41.572;24.730;2023-06-04T13:11:41;7.63;;;4.13;;
59273;SDS011;45044;41.572;24.730;2023-06-04T13:14:09;10.88;;;5.50;;
59273;SDS011;45044;41.572;24.730;2023-06-04T13:16:40;10.32;;;5.65;;
59273;SDS011;45044;41.572;24.730;2023-06-04T13:19:07;6.60;;;4.35;;
59273;SDS011;45044;41.572;24.730;2023-06-04T13:21:35;6.10;;;4.20;;
59273;SDS011;45044;41.572;24.730;2023-06-04T13:24:02;8.13;;;3.92;;
59273;SDS011;45044;41.572;24.730;2023-06-04T13:26:30;5.88;;;3.70;;
59273;SDS011;45044;41.572;24.730;2023-06-04T13:28:57;10.43;;;4.30;;
59273;SDS011;45044;41.572;24.730;2023-06-04T13:31:23;7.93;;;3.95;;
59273;SDS011;45044;41.572;24.730;2023-06-04T13:33:50;7.60;;;4.88;;
59273;SDS011;45044;41.572;24.730;2023-06-04T13:36:17;6.88;;;4.60;;
59273;SDS011;45044;41.572;24.730;2023-06-04T13:38:44;7.90;;;4.55;;
59273;SDS011;45044;41.572;24.730;2023-06-04T13:41:11;6.88;;;4.78;;
59273;SDS011;45044;41.572;24.730;2023-06-04T13:43:37;7.20;;;4.55;;
59273;SDS011;45044;41.572;24.730;2023-06-04T13:46:05;7.70;;;5.28;;
59273;SDS011;45044;41.572;24.730;2023-06-04T13:48:32;6.60;;;4.30;;
59273;SDS011;45044;41.572;24.730;2023-06-04T13:50:59;7.32;;;5.00;;
59273;SDS011;45044;41.572;24.730;2023-06-04T13:53:26;7.25;;;4.97;;
59273;SDS011;45044;41.572;24.730;2023-06-04T13:55:52;6.53;;;4.00;;
59273;SDS011;45044;41.572;24.730;2023-06-04T13:58:25;8.63;;;5.13;;
59273;SDS011;45044;41.572;24.730;2023-06-04T14:00:52;8.45;;;5.28;;
59273;SDS011;45044;41.572;24.730;2023-06-04T14:03:20;9.85;;;4.78;;
59273;SDS011;45044;41.572;24.730;2023-06-04T14:05:48;7.75;;;5.20;;
59273;SDS011;45044;41.572;24.730;2023-06-04T14:08:14;8.77;;;5.18;;
59273;SDS011;45044;41.572;24.730;2023-06-04T14:10:43;7.63;;;4.75;;
59273;SDS011;45044;41.572;24.730;2023-06-04T14:13:10;8.07;;;4.85;;
59273;SDS011;45044;41.572;24.730;2023-06-04T14:15:39;7.00;;;4.20;;
59273;SDS011;45044;41.572;24.730;2023-06-04T14:18:05;7.65;;;5.13;;
59273;SDS011;45044;41.572;24.730;2023-06-04T14:20:34;7.53;;;5.07;;
59273;SDS011;45044;41.572;24.730;2023-06-04T14:23:01;6.82;;;4.78;;
59273;SDS011;45044;41.572;24.730;2023-06-04T14:25:28;10.40;;;4.93;;
59273;SDS011;45044;41.572;24.730;2023-06-04T14:27:55;7.57;;;5.00;;
59273;SDS011;45044;41.572;24.730;2023-06-04T14:30:22;7.38;;;4.60;;
59273;SDS011;45044;41.572;24.730;2023-06-04T14:32:49;6.43;;;4.60;;
59273;SDS011;45044;41.572;24.730;2023-06-04T14:35:16;7.55;;;4.82;;
59273;SDS011;45044;41.572;24.730;2023-06-04T14:37:53;7.30;;;4.65;;
59273;SDS011;45044;41.572;24.730;2023-06-04T14:40:19;8.50;;;4.95;;
59273;SDS011;45044;41.572;24.730;2023-06-04T14:42:46;7.90;;;4.93;;